Time;durP1;ratioP1;P1;durP2;ratioP2;P2;SDS_P1;SDS_P2;PMS_P1;PMS_P2;Temp;Humidity;BMP_temperature;BMP_pressure;BME280_temperature;BME280_humidity;BME280_pressure;Samples;Min_cycle;Max_cycle;Signal;HPM_P1;HPM_P2
2022/10/23 00:00:42;;;;;;;26.30;17.00;;;;;;;8.60;84.06;99319.24;102369;1295;22601;-60
2022/10/23 00:03:09;;;;;;;;;;;;;;;8.58;84.22;99320.66;102366;1295;138687;-59
2022/10/23 00:05:39;;;;;;;26.60;15.30;;;;;;;8.56;84.32;99319.34;102463;1305;22724;-60
2022/10/23 00:08:06;;;;;;;24.30;15.40;;;;;;;8.53;84.41;99321.63;106651;1287;137735;-60
2022/10/23 00:10:33;;;;;;;26.50;15.80;;;;;;;8.52;84.58;99317.48;106776;1302;22257;-60
2022/10/23 00:13:00;;;;;;;;;;;;;;;8.50;84.82;99315.25;106689;1300;138595;-60
2022/10/23 00:15:26;;;;;;;30.30;16.20;;;;;;;8.49;84.89;99312.68;106789;1294;22219;-60
2022/10/23 00:17:53;;;;;;;25.80;15.50;;;;;;;8.47;85.06;99312.80;106878;1284;22122;-60
2022/10/23 00:20:20;;;;;;;;;;;;;;;8.47;85.23;99313.63;106671;1301;138372;-61
2022/10/23 00:22:47;;;;;;;28.40;15.30;;;;;;;8.46;85.41;99313.43;106783;1285;22043;-61
2022/10/23 00:25:15;;;;;;;26.50;16.30;;;;;;;8.44;85.47;99312.01;106698;1302;140520;-61
2022/10/23 00:27:42;;;;;;;24.80;15.00;;;;;;;8.43;85.76;99311.98;106840;1303;22181;-61
2022/10/23 00:30:09;;;;;;;24.70;17.10;;;;;;;8.43;85.78;99310.84;106830;1303;22222;-58
2022/10/23 00:32:36;;;;;;;28.70;16.30;;;;;;;8.42;85.96;99307.89;106682;1300;137974;-61
2022/10/23 00:35:03;;;;;;;;;;;;;;;8.41;86.12;99306.69;106831;1297;22341;-61
2022/10/23 00:37:30;;;;;;;25.50;16.00;;;;;;;8.41;86.14;99303.75;106688;1302;124425;-60
2022/10/23 00:39:56;;;;;;;;;;;;;;;8.40;86.32;99305.96;106910;1303;22512;-60
2022/10/23 00:42:23;;;;;;;28.30;17.60;;;;;;;8.39;86.40;99303.83;106704;1283;22327;-61
2022/10/23 00:44:50;;;;;;;;;;;;;;;8.38;86.54;99302.56;106805;1295;137956;-60
2022/10/23 00:47:17;;;;;;;27.90;16.80;;;;;;;8.37;86.75;99298.09;106838;1300;23320;-60
2022/10/23 00:49:43;;;;;;;28.70;17.70;;;;;;;8.36;86.83;99296.91;106712;1300;138395;-60
2022/10/23 00:52:11;;;;;;;;;;;;;;;8.35;86.96;99290.27;106827;1300;22367;-61
2022/10/23 00:54:39;;;;;;;26.60;17.40;;;;;;;8.34;87.07;99287.42;106751;1303;23183;-60
2022/10/23 00:57:09;;;;;;;26.50;17.00;;;;;;;8.34;87.21;99286.66;106741;1300;139267;-60
2022/10/23 00:59:36;;;;;;;26.10;17.50;;;;;;;8.33;87.24;99284.09;106733;1299;22135;-60
2022/10/23 01:02:02;;;;;;;26.70;16.90;;;;;;;8.32;87.52;99282.11;106710;1300;138088;-60
2022/10/23 01:04:29;;;;;;;28.40;17.40;;;;;;;8.31;87.50;99278.52;106773;1300;22233;-60
2022/10/23 01:06:56;;;;;;;;;;;;;;;8.31;87.63;99274.77;106780;1300;139876;-60
2022/10/23 01:09:29;;;;;;;25.00;17.20;;;;;;;8.31;87.76;99275.63;106755;1296;22149;-60
2022/10/23 01:12:03;;;;;;;25.20;17.90;;;;;;;8.31;87.84;99270.36;106798;1300;22131;-60
2022/10/23 01:15:05;;;;;;;29.40;16.60;;;;;;;8.32;88.09;99266.98;106694;1300;138504;-60
2022/10/23 01:17:45;;;;;;;30.70;18.70;;;;;;;8.33;88.08;99266.55;106795;1299;22139;-60
2022/10/23 01:20:21;;;;;;;32.00;17.20;;;;;;;8.32;88.19;99258.46;106498;1300;139359;-60
2022/10/23 01:23:03;;;;;;;25.90;17.60;;;;;;;8.30;88.41;99254.80;106872;1300;22268;-60
2022/10/23 01:25:30;;;;;;;31.20;18.00;;;;;;;8.34;88.59;99253.33;106724;1293;139273;-60
2022/10/23 01:28:00;;;;;;;27.00;17.30;;;;;;;8.35;88.68;99254.23;106771;1300;22086;-61
2022/10/23 01:30:27;;;;;;;30.20;17.70;;;;;;;8.37;88.78;99252.65;106774;1300;22930;-61
2022/10/23 01:32:55;;;;;;;;;;;;;;;8.38;88.90;99251.48;106736;1300;138866;-60
2022/10/23 01:35:33;;;;;;;27.60;16.70;;;;;;;8.39;89.03;99249.53;106639;1302;22366;-60
2022/10/23 01:38:07;;;;;;;26.40;17.30;;;;;;;8.39;89.10;99246.98;106662;1298;139882;-60
2022/10/23 01:40:36;;;;;;;26.90;17.50;;;;;;;8.39;89.21;99243.94;104018;1303;22481;-60
2022/10/23 01:43:08;;;;;;;29.00;17.90;;;;;;;8.39;89.23;99242.69;102297;1291;139490;-59
2022/10/23 01:45:36;;;;;;;26.60;16.70;;;;;;;8.39;89.46;99242.59;102384;1310;22521;-59
2022/10/23 01:48:04;;;;;;;26.50;17.10;;;;;;;8.40;89.47;99238.73;102281;1292;24228;-60
2022/10/23 01:50:32;;;;;;;27.50;17.60;;;;;;;8.39;89.62;99232.91;106319;1310;138805;-60
2022/10/23 01:53:03;;;;;;;25.00;18.40;;;;;;;8.40;89.60;99237.65;106585;1303;22135;-60
2022/10/23 01:55:31;;;;;;;26.70;17.40;;;;;;;8.39;89.66;99235.41;106457;1297;138677;-60
2022/10/23 01:58:00;;;;;;;24.40;16.40;;;;;;;8.39;89.74;99232.16;106560;1303;22331;-60
2022/10/23 02:00:35;;;;;;;27.10;17.90;;;;;;;8.39;89.85;99237.38;106668;1303;22139;-60
2022/10/23 02:03:03;;;;;;;24.30;17.10;;;;;;;8.39;89.88;99238.67;106443;1294;140006;-61
2022/10/23 02:05:31;;;;;;;29.30;18.20;;;;;;;8.39;89.97;99239.17;106650;1303;22801;-61
2022/10/23 02:08:00;;;;;;;30.60;17.20;;;;;;;8.40;89.99;99236.77;106642;1298;138527;-61
2022/10/23 02:10:33;;;;;;;23.70;17.00;;;;;;;8.39;90.06;99236.45;106546;1298;22117;-61
2022/10/23 02:13:40;;;;;;;27.50;18.50;;;;;;;8.40;90.13;99239.83;106555;1303;138590;-60
2022/10/23 02:16:26;;;;;;;27.00;17.90;;;;;;;8.40;90.11;99236.63;106688;1303;22148;-61
2022/10/23 02:19:26;;;;;;;29.50;18.10;;;;;;;8.40;90.17;99238.20;106778;1301;22275;-61
2022/10/23 02:22:22;;;;;;;29.70;18.50;;;;;;;8.39;90.20;99241.89;106766;1300;22224;-61
2022/10/23 02:24:53;;;;;;;31.00;18.10;;;;;;;8.39;90.37;99239.27;106805;1302;22104;-61
2022/10/23 02:27:28;;;;;;;25.10;17.90;;;;;;;8.39;90.43;99239.98;106490;1306;140957;-61
2022/10/23 02:29:59;;;;;;;23.10;17.20;;;;;;;8.39;90.57;99240.47;106719;1302;22201;-61
2022/10/23 02:32:26;;;;;;;25.00;18.30;;;;;;;8.39;90.59;99243.23;106604;1303;139793;-61
2022/10/23 02:34:53;;;;;;;26.40;18.20;;;;;;;8.39;90.65;99238.45;106851;1303;22302;-60
2022/10/23 02:37:19;;;;;;;26.90;18.40;;;;;;;8.39;90.72;99231.40;106600;1303;139546;-60
2022/10/23 02:39:48;;;;;;;30.10;18.10;;;;;;;8.39;90.82;99231.83;106818;1303;22099;-61
2022/10/23 02:42:22;;;;;;;27.30;18.00;;;;;;;8.36;90.87;99229.41;106711;1293;22835;-60
2022/10/23 02:45:12;;;;;;;29.70;18.30;;;;;;;8.38;90.97;99230.19;106547;1302;138757;-60
2022/10/23 02:47:53;;;;;;;27.50;18.30;;;;;;;8.39;90.94;99227.98;106784;1302;22155;-60
2022/10/23 02:50:36;;;;;;;33.00;19.30;;;;;;;8.40;91.11;99229.94;106575;1303;139395;-60
2022/10/23 02:53:06;;;;;;;28.80;18.60;;;;;;;8.40;91.16;99232.01;106653;1298;22124;-60
2022/10/23 02:55:52;;;;;;;27.90;19.00;;;;;;;8.40;91.43;99228.16;106671;1299;139515;-60
2022/10/23 02:58:30;;;;;;;26.50;18.20;;;;;;;8.40;91.33;99231.58;106749;1305;22081;-60
2022/10/23 03:01:02;;;;;;;29.10;19.30;;;;;;;8.41;91.60;99229.73;106699;1303;22096;-60
2022/10/23 03:03:31;;;;;;;25.70;17.30;;;;;;;8.41;91.75;99230.34;106629;1300;22086;-60
2022/10/23 03:05:58;;;;;;;28.90;17.70;;;;;;;8.42;91.82;99232.04;106680;1291;22091;-60
2022/10/23 03:08:25;;;;;;;24.00;16.60;;;;;;;8.42;91.78;99230.73;106650;1297;140117;-59
2022/10/23 03:10:52;;;;;;;;;;;;;;;8.44;91.86;99225.27;106800;1300;23097;-60
2022/10/23 03:13:19;;;;;;;31.70;19.50;;;;;;;8.45;92.02;99230.18;106695;1300;124410;-60
2022/10/23 03:15:46;;;;;;;;;;;;;;;8.45;92.08;99230.52;106768;1300;22330;-60
2022/10/23 03:18:13;;;;;;;44.00;28.80;;;;;;;8.45;92.19;99229.96;106761;1305;22090;-60
2022/10/23 03:20:44;;;;;;;36.70;23.10;;;;;;;8.44;92.55;99231.42;106652;1300;139643;-60
2022/10/23 03:23:11;;;;;;;;;;;;;;;8.46;92.57;99229.60;106782;1300;23196;-60
2022/10/23 03:25:38;;;;;;;33.20;20.20;;;;;;;8.46;92.70;99225.91;106774;1295;124568;-60
2022/10/23 03:28:05;;;;;;;28.30;19.90;;;;;;;8.46;92.75;99219.18;106566;1302;22124;-60
2022/10/23 03:30:33;;;;;;;33.30;21.10;;;;;;;8.47;92.93;99223.92;106733;1297;22095;-60
2022/10/23 03:32:59;;;;;;;;;;;;;;;8.48;92.91;99224.11;106455;1304;139368;-60
2022/10/23 03:35:26;;;;;;;32.00;20.20;;;;;;;8.50;92.99;99222.88;106786;1302;22142;-60
2022/10/23 03:37:53;;;;;;;31.80;19.80;;;;;;;8.51;93.22;99221.31;106714;1299;138318;-60
2022/10/23 03:40:22;;;;;;;31.10;20.30;;;;;;;8.53;93.25;99218.39;106754;1293;22333;-60
2022/10/23 03:42:48;;;;;;;;;;;;;;;8.54;93.42;99215.20;106848;1295;22346;-60
2022/10/23 03:45:17;;;;;;;29.70;19.00;;;;;;;8.55;93.50;99217.65;106698;1303;125758;-60
2022/10/23 03:47:44;;;;;;;32.30;20.10;;;;;;;8.56;93.63;99214.95;106893;1288;22204;-60
2022/10/23 03:50:12;;;;;;;30.10;20.80;;;;;;;8.58;93.68;99216.18;106653;1297;139577;-60
2022/10/23 03:52:39;;;;;;;31.80;20.80;;;;;;;8.61;93.80;99218.17;106874;1300;22581;-60
2022/10/23 03:55:07;;;;;;;31.50;21.00;;;;;;;8.61;93.96;99214.05;106660;1302;138850;-60
2022/10/23 03:57:35;;;;;;;32.30;19.80;;;;;;;8.63;93.94;99214.40;106822;1294;22188;-60
2022/10/23 04:00:02;;;;;;;;;;;;;;;8.64;94.07;99210.63;106791;1302;22360;-60
2022/10/23 04:02:31;;;;;;;31.70;20.10;;;;;;;8.66;94.22;99207.75;106815;1300;124200;-60
2022/10/23 04:04:58;;;;;;;;;;;;;;;8.67;94.25;99207.69;106843;1295;22360;-60
2022/10/23 04:07:27;;;;;;;26.90;18.70;;;;;;;8.67;94.22;99205.96;106698;1303;125030;-60
2022/10/23 04:09:54;;;;;;;;;;;;;;;8.68;94.42;99202.44;106782;1306;22356;-61
2022/10/23 04:12:21;;;;;;;24.70;18.50;;;;;;;8.68;94.47;99204.40;106860;1298;22153;-60
2022/10/23 04:14:50;;;;;;;24.90;17.90;;;;;;;8.69;94.58;99204.58;106653;1302;139463;-61
2022/10/23 04:17:16;;;;;;;;;;;;;;;8.70;94.56;99204.25;106861;1293;22325;-60
2022/10/23 04:19:43;;;;;;;25.00;17.50;;;;;;;8.70;94.59;99203.92;106761;1300;124326;-61
2022/10/23 04:22:10;;;;;;;;;;;;;;;8.69;94.65;99205.88;106801;1291;22336;-60
2022/10/23 04:24:37;;;;;;;23.60;17.40;;;;;;;8.69;94.72;99205.88;106799;1306;22147;-60
2022/10/23 04:27:04;;;;;;;25.70;18.20;;;;;;;8.68;94.88;99206.89;106740;1300;139298;-60
2022/10/23 04:29:31;;;;;;;;;;;;;;;8.69;94.85;99206.96;106795;1300;22351;-60
2022/10/23 04:31:58;;;;;;;23.10;17.00;;;;;;;8.70;94.99;99203.23;106742;1300;124222;-61
2022/10/23 04:34:25;;;;;;;;;;;;;;;8.71;95.00;99202.11;106850;1303;22418;-60
2022/10/23 04:36:52;;;;;;;25.90;19.10;;;;;;;8.72;95.15;99197.18;106733;1306;22223;-60
2022/10/23 04:39:19;;;;;;;22.30;17.70;;;;;;;8.73;95.30;99196.91;106735;1301;138988;-60
2022/10/23 04:41:46;;;;;;;;;;;;;;;8.72;95.29;99192.56;106830;1300;23463;-60
2022/10/23 04:44:13;;;;;;;24.30;17.10;;;;;;;8.75;95.39;99197.48;106693;1304;124736;-60
2022/10/23 04:46:40;;;;;;;;;;;;;;;8.76;95.33;99199.30;106812;1306;23111;-60
2022/10/23 04:49:07;;;;;;;24.10;17.50;;;;;;;8.77;95.43;99200.39;106751;1302;124412;-60
2022/10/23 04:51:49;;;;;;;26.10;18.60;;;;;;;8.77;95.49;99197.67;106803;1295;22117;-60
2022/10/23 04:54:42;;;;;;;24.40;16.90;;;;;;;8.78;95.60;99200.95;106620;1300;22157;-60
2022/10/23 04:57:28;;;;;;;21.30;16.80;;;;;;;8.78;95.58;99198.90;106752;1299;137884;-60
2022/10/23 05:00:00;;;;;;;24.30;15.90;;;;;;;8.79;95.65;99200.80;106698;1300;23371;-60
2022/10/23 05:02:32;;;;;;;22.20;16.20;;;;;;;8.80;95.83;99202.48;106653;1299;138642;-60
2022/10/23 05:04:59;;;;;;;;;;;;;;;8.82;95.84;99199.13;106799;1299;22381;-60
2022/10/23 05:07:46;;;;;;;21.30;15.30;;;;;;;8.83;95.80;99200.23;106560;1303;124429;-61
2022/10/23 05:10:42;;;;;;;20.40;15.40;;;;;;;8.84;95.93;99198.83;106637;1303;22209;-60
2022/10/23 05:13:14;;;;;;;22.90;15.90;;;;;;;8.84;96.02;99204.11;106753;1291;138923;-61
2022/10/23 05:15:40;;;;;;;21.40;15.00;;;;;;;8.85;96.08;99205.64;106771;1305;22109;-61
2022/10/23 05:18:35;;;;;;;23.30;14.90;;;;;;;8.86;96.07;99207.88;106799;1298;22083;-60
2022/10/23 05:21:05;;;;;;;19.50;14.00;;;;;;;8.87;96.16;99206.15;106669;1298;138550;-61
2022/10/23 05:23:32;;;;;;;18.20;14.00;;;;;;;8.88;96.14;99206.76;106806;1299;22318;-60
2022/10/23 05:26:02;;;;;;;17.70;13.40;;;;;;;8.88;96.30;99204.70;106644;1297;138671;-60
2022/10/23 05:28:30;;;;;;;21.70;13.80;;;;;;;8.90;96.29;99208.20;106792;1301;22252;-61
2022/10/23 05:30:57;;;;;;;;;;;;;;;8.91;96.42;99211.80;106876;1302;22319;-61
2022/10/23 05:33:26;;;;;;;16.00;12.40;;;;;;;8.93;96.52;99209.05;106672;1305;124661;-60
2022/10/23 05:35:53;;;;;;;;;;;;;;;8.94;96.42;99204.11;106711;1298;22419;-62
2022/10/23 05:38:20;;;;;;;19.80;13.40;;;;;;;8.95;96.54;99204.12;106713;1304;125862;-61
2022/10/23 05:40:50;;;;;;;16.00;13.20;;;;;;;8.95;96.64;99204.92;106792;1303;22198;-65
2022/10/23 05:43:18;;;;;;;15.90;11.90;;;;;;;8.97;96.71;99204.63;106666;1306;139348;-64
2022/10/23 05:46:06;;;;;;;17.50;13.80;;;;;;;8.98;96.75;99207.30;106710;1303;22111;-64
2022/10/23 05:48:51;;;;;;;15.70;11.40;;;;;;;9.00;96.80;99203.63;106860;1303;22182;-64
2022/10/23 05:51:36;;;;;;;17.90;13.00;;;;;;;9.02;96.75;99203.77;106791;1294;22189;-64
2022/10/23 05:54:28;;;;;;;16.30;13.30;;;;;;;9.04;97.01;99208.24;106776;1306;22131;-64
2022/10/23 05:57:02;;;;;;;16.60;13.30;;;;;;;9.05;97.00;99207.33;106769;1306;138079;-64
2022/10/23 05:59:42;;;;;;;16.20;13.20;;;;;;;9.07;96.90;99207.19;106784;1292;22149;-64
2022/10/23 06:02:35;;;;;;;16.80;12.80;;;;;;;9.09;97.03;99208.79;106680;1291;138300;-63
2022/10/23 06:05:06;;;;;;;19.60;13.60;;;;;;;9.08;97.07;99206.47;106761;1303;23039;-64
2022/10/23 06:07:33;;;;;;;16.60;12.50;;;;;;;9.11;97.04;99210.96;106705;1303;139391;-64
2022/10/23 06:10:04;;;;;;;16.60;12.50;;;;;;;9.11;97.07;99216.39;106825;1293;22198;-65
2022/10/23 06:12:32;;;;;;;18.50;12.70;;;;;;;9.10;96.99;99214.48;106803;1299;22323;-64
2022/10/23 06:14:59;;;;;;;16.20;12.00;;;;;;;9.11;97.14;99217.27;106655;1306;139575;-64
2022/10/23 06:17:38;;;;;;;17.60;13.50;;;;;;;9.13;97.16;99214.15;106760;1291;22099;-64
2022/10/23 06:20:05;;;;;;;;;;;;;;;9.13;97.14;99214.20;106779;1306;138836;-64
2022/10/23 06:22:33;;;;;;;17.80;13.00;;;;;;;9.14;97.37;99211.11;106754;1302;22202;-64
2022/10/23 06:25:11;;;;;;;16.30;12.40;;;;;;;9.16;97.44;99212.55;106705;1301;138789;-63
2022/10/23 06:27:38;;;;;;;17.10;13.30;;;;;;;9.17;97.32;99207.29;106756;1298;22222;-64
2022/10/23 06:30:10;;;;;;;16.60;12.50;;;;;;;9.18;97.68;99207.36;106759;1301;22066;-65
2022/10/23 06:32:37;;;;;;;20.80;13.20;;;;;;;9.21;97.57;99215.17;106685;1303;139058;-64
2022/10/23 06:35:09;;;;;;;16.10;12.40;;;;;;;9.24;97.66;99216.10;106790;1305;22311;-65
2022/10/23 06:37:36;;;;;;;18.10;12.50;;;;;;;9.26;97.76;99213.84;106662;1296;139458;-64
2022/10/23 06:40:08;;;;;;;17.90;12.80;;;;;;;9.29;97.87;99211.16;106767;1300;22128;-60
2022/10/23 06:42:54;;;;;;;16.30;12.30;;;;;;;9.31;97.93;99215.70;106732;1303;22254;-61
2022/10/23 06:45:32;;;;;;;19.50;13.40;;;;;;;9.34;97.87;99216.38;106786;1303;138845;-60
2022/10/23 06:48:25;;;;;;;17.10;13.40;;;;;;;9.36;98.05;99217.39;106636;1306;22161;-61
2022/10/23 06:51:06;;;;;;;16.90;12.80;;;;;;;9.38;98.09;99217.33;106650;1303;138718;-60
2022/10/23 06:53:41;;;;;;;14.40;11.20;;;;;;;9.39;98.07;99213.64;106744;1301;22113;-60
2022/10/23 06:56:29;;;;;;;18.00;13.40;;;;;;;9.41;98.19;99208.92;106550;1302;139973;-60
2022/10/23 06:58:56;;;;;;;19.50;14.20;;;;;;;9.43;98.35;99209.33;106768;1302;22226;-60
2022/10/23 07:01:22;;;;;;;;;;;;;;;9.44;98.20;99209.02;106678;1303;138898;-60
2022/10/23 07:03:49;;;;;;;17.80;13.90;;;;;;;9.45;98.29;99213.92;106798;1302;22118;-60
2022/10/23 07:06:19;;;;;;;25.90;20.30;;;;;;;9.46;98.55;99215.13;106801;1305;22237;-60
2022/10/23 07:08:46;;;;;;;24.40;16.80;;;;;;;9.48;98.74;99215.48;106613;1302;138783;-61
2022/10/23 07:11:33;;;;;;;20.70;15.30;;;;;;;9.51;98.68;99218.29;106767;1295;22159;-61
2022/10/23 07:14:00;;;;;;;23.70;15.90;;;;;;;9.53;98.78;99216.54;106681;1301;138498;-61
2022/10/23 07:19:26;;;;;;;23.20;16.00;;;;;;;9.55;98.84;99222.87;106651;1306;138908;-60
2022/10/23 07:21:55;;;;;;;23.40;18.20;;;;;;;9.57;98.80;99223.16;106761;1303;22179;-61
2022/10/23 07:24:45;;;;;;;35.80;26.00;;;;;;;9.60;98.85;99225.80;106845;1300;22126;-60
2022/10/23 07:27:24;;;;;;;26.40;19.20;;;;;;;9.62;98.91;99221.75;106598;1305;138718;-61
2022/10/23 07:29:55;;;;;;;22.70;17.50;;;;;;;9.64;98.90;99220.73;106775;1279;22337;-61
2022/10/23 07:32:23;;;;;;;24.50;18.30;;;;;;;9.65;98.99;99222.04;106653;1294;140182;-67
2022/10/23 07:35:08;;;;;;;25.20;17.60;;;;;;;9.65;98.86;99218.63;106824;1300;22888;-62
2022/10/23 07:37:38;;;;;;;23.10;16.70;;;;;;;9.64;99.00;99218.23;106654;1303;139947;-61
2022/10/23 07:40:06;;;;;;;28.80;19.00;;;;;;;9.63;99.01;99211.70;106734;1300;22328;-65
2022/10/23 07:42:37;;;;;;;31.70;21.10;;;;;;;9.65;99.19;99209.31;106777;1298;22127;-65
2022/10/23 07:45:06;;;;;;;27.50;19.90;;;;;;;9.67;99.21;99209.96;106659;1303;138263;-65
2022/10/23 07:47:34;;;;;;;29.30;19.50;;;;;;;9.67;99.18;99201.86;106778;1301;22136;-65
2022/10/23 07:50:01;;;;;;;;;;;;;;;9.71;99.28;99208.52;106780;1295;138218;-65
2022/10/23 07:52:28;;;;;;;30.40;18.50;;;;;;;9.72;99.32;99207.02;106743;1300;22120;-65
2022/10/23 07:55:15;;;;;;;30.40;19.10;;;;;;;9.73;99.56;99205.67;106661;1294;138659;-65
2022/10/23 07:57:48;;;;;;;35.20;21.40;;;;;;;9.75;99.61;99207.54;106762;1300;22124;-65
2022/10/23 08:00:39;;;;;;;32.20;21.30;;;;;;;9.76;99.59;99205.33;106687;1302;22162;-65
2022/10/23 08:03:11;;;;;;;40.90;28.00;;;;;;;9.79;99.76;99207.27;106589;1299;138273;-64
2022/10/23 08:05:38;;;;;;;43.10;30.70;;;;;;;9.81;99.72;99204.98;106796;1303;22313;-63
2022/10/23 08:08:05;;;;;;;;;;;;;;;9.83;99.90;99208.13;106553;1303;140084;-63
2022/10/23 08:10:32;;;;;;;107.80;62.30;;;;;;;9.85;99.89;99209.90;106876;1301;23225;-63
2022/10/23 08:12:59;;;;;;;63.10;39.80;;;;;;;9.87;99.97;99210.02;106760;1300;22099;-63
2022/10/23 08:15:51;;;;;;;36.90;25.10;;;;;;;9.90;100.00;99211.89;106755;1293;22276;-64
2022/10/23 08:18:36;;;;;;;39.90;23.10;;;;;;;9.90;100.00;99212.06;106874;1300;22129;-64
2022/10/23 08:21:04;;;;;;;39.90;23.60;;;;;;;9.94;100.00;99215.70;106660;1299;139052;-64
2022/10/23 08:23:31;;;;;;;45.40;25.70;;;;;;;9.96;100.00;99215.95;106739;1300;22178;-63
2022/10/23 08:26:04;;;;;;;51.00;27.50;;;;;;;9.98;100.00;99218.64;106666;1300;138301;-64
2022/10/23 08:28:31;;;;;;;63.20;39.60;;;;;;;9.99;100.00;99215.39;106805;1300;22115;-64
2022/10/23 08:31:04;;;;;;;58.80;35.80;;;;;;;10.03;100.00;99220.10;106786;1300;22121;-64
2022/10/23 08:33:31;;;;;;;53.50;33.00;;;;;;;10.08;100.00;99222.10;106570;1304;138917;-64
2022/10/23 08:35:58;;;;;;;;;;;;;;;10.10;100.00;99221.83;106844;1299;23472;-64
2022/10/23 08:38:28;;;;;;;41.90;24.50;;;;;;;10.13;100.00;99226.26;106676;1303;125807;-64
2022/10/23 08:40:56;;;;;;;37.00;23.30;;;;;;;10.12;100.00;99220.54;103166;1304;22487;-60
2022/10/23 08:43:53;;;;;;;45.90;26.60;;;;;;;10.17;100.00;99230.01;102179;1304;139716;-60
2022/10/23 08:46:30;;;;;;;40.50;26.10;;;;;;;10.19;100.00;99229.06;102291;1289;22735;-60
2022/10/23 08:49:28;;;;;;;43.80;25.20;;;;;;;10.20;100.00;99230.65;102131;1294;138855;-61
2022/10/23 08:52:01;;;;;;;73.90;32.90;;;;;;;10.21;100.00;99232.67;102344;1293;24833;-61
2022/10/23 08:54:41;;;;;;;55.50;26.90;;;;;;;10.23;100.00;99236.17;102416;1295;22625;-61
2022/10/23 08:57:12;;;;;;;92.40;34.30;;;;;;;10.26;100.00;99236.72;102243;1295;140311;-61
2022/10/23 08:59:46;;;;;;;89.30;37.30;;;;;;;10.28;100.00;99238.36;106526;1307;22125;-60
2022/10/23 09:02:20;;;;;;;49.20;25.90;;;;;;;10.30;100.00;99240.66;106659;1300;138912;-61
2022/10/23 09:04:48;;;;;;;71.50;31.90;;;;;;;10.33;100.00;99243.36;106769;1303;22130;-61
2022/10/23 09:07:23;;;;;;;87.20;34.30;;;;;;;10.35;100.00;99240.39;106874;1298;22137;-61
2022/10/23 09:10:23;;;;;;;74.90;32.40;;;;;;;10.39;100.00;99244.48;106808;1300;22208;-61
2022/10/23 09:12:50;;;;;;;71.10;32.00;;;;;;;10.42;100.00;99242.26;106824;1300;22266;-61
2022/10/23 09:15:29;;;;;;;;;;;;;;;10.45;100.00;99243.86;106713;1300;138615;-61
2022/10/23 09:18:00;;;;;;;50.30;25.60;;;;;;;10.47;100.00;99235.98;106822;1288;22137;-60
2022/10/23 09:20:33;;;;;;;42.60;25.70;;;;;;;10.50;100.00;99235.67;106676;1300;138865;-60
2022/10/23 09:23:06;;;;;;;37.90;21.70;;;;;;;10.53;100.00;99235.02;106732;1300;22094;-60
2022/10/23 09:25:35;;;;;;;34.80;21.10;;;;;;;10.55;100.00;99237.48;106658;1300;138845;-62
2022/10/23 09:28:02;;;;;;;33.30;19.30;;;;;;;10.57;100.00;99239.39;106939;1286;22326;-61
2022/10/23 09:30:36;;;;;;;30.00;18.40;;;;;;;10.59;100.00;99239.09;106885;1303;22143;-61
2022/10/23 09:33:20;;;;;;;27.80;18.90;;;;;;;10.62;100.00;99239.82;106690;1303;139621;-60
2022/10/23 09:35:51;;;;;;;27.40;17.70;;;;;;;10.67;100.00;99240.77;106879;1303;22148;-60
2022/10/23 09:38:26;;;;;;;24.20;17.00;;;;;;;10.70;100.00;99241.74;106657;1302;138947;-60
2022/10/23 09:40:53;;;;;;;27.80;17.10;;;;;;;10.72;100.00;99239.85;103510;1282;22486;-60
2022/10/23 09:43:26;;;;;;;29.90;18.80;;;;;;;10.74;100.00;99240.63;102318;1294;139471;-58
2022/10/23 09:46:03;;;;;;;25.50;17.40;;;;;;;10.75;100.00;99239.05;102314;1287;25008;-60
2022/10/23 09:48:31;;;;;;;26.00;17.60;;;;;;;10.77;100.00;99238.74;106811;1300;23290;-61
2022/10/23 09:51:02;;;;;;;26.30;18.20;;;;;;;10.80;100.00;99236.69;106686;1302;138518;-61
2022/10/23 09:53:51;;;;;;;27.30;19.30;;;;;;;10.82;100.00;99234.73;106745;1303;22107;-61
2022/10/23 09:56:25;;;;;;;28.10;18.90;;;;;;;10.85;100.00;99234.08;106603;1303;139751;-61
2022/10/23 09:58:53;;;;;;;23.80;16.50;;;;;;;10.87;100.00;99233.97;106820;1300;23413;-61
2022/10/23 10:01:24;;;;;;;26.70;18.50;;;;;;;10.89;100.00;99235.52;106723;1300;138989;-61
2022/10/23 10:03:53;;;;;;;24.80;17.40;;;;;;;10.91;100.00;99235.03;106766;1296;22151;-61
2022/10/23 10:06:25;;;;;;;23.90;17.30;;;;;;;10.94;100.00;99236.52;106796;1294;22565;-61
2022/10/23 10:08:57;;;;;;;89.40;58.30;;;;;;;10.96;100.00;99229.27;106672;1299;139052;-60
2022/10/23 10:11:39;;;;;;;69.20;47.00;;;;;;;10.98;100.00;99231.23;106824;1300;22155;-59
2022/10/23 10:14:37;;;;;;;31.00;21.20;;;;;;;11.01;100.00;99227.27;106789;1300;139478;-67
2022/10/23 10:17:08;;;;;;;27.20;18.20;;;;;;;11.03;100.00;99226.90;106815;1294;22124;-68
2022/10/23 10:19:39;;;;;;;30.00;18.50;;;;;;;11.09;100.00;99228.50;106655;1300;138712;-67
2022/10/23 10:24:40;;;;;;;23.00;16.50;;;;;;;11.17;100.00;99225.95;99535;1338;544916;-67
2022/10/23 10:27:20;;;;;;;25.60;17.20;;;;;;;11.18;100.00;99220.17;100872;1300;138893;-67
2022/10/23 10:29:54;;;;;;;27.00;16.30;;;;;;;11.19;100.00;99222.96;101040;1300;22947;-68
2022/10/23 10:32:37;;;;;;;25.20;17.20;;;;;;;11.20;100.00;99220.45;106526;1303;137826;-68
2022/10/23 10:35:10;;;;;;;24.00;15.80;;;;;;;11.20;100.00;99216.73;106745;1302;22149;-68
2022/10/23 10:37:45;;;;;;;23.00;15.50;;;;;;;11.19;100.00;99215.16;105866;1297;1023652;-68
2022/10/23 10:40:31;;;;;;;23.60;14.50;;;;;;;11.17;100.00;99212.75;106673;1302;22258;-68
2022/10/23 10:43:21;;;;;;;70.00;48.40;;;;;;;11.19;100.00;99213.41;106700;1302;22132;-59
2022/10/23 10:45:49;;;;;;;56.80;38.90;;;;;;;11.18;100.00;99216.57;106691;1294;22135;-59
2022/10/23 10:48:38;;;;;;;27.90;18.30;;;;;;;11.19;100.00;99214.88;106746;1302;22147;-68
2022/10/23 10:51:31;;;;;;;20.60;14.30;;;;;;;11.20;100.00;99215.55;106551;1302;139011;-68
2022/10/23 10:54:20;;;;;;;18.60;13.40;;;;;;;11.21;100.00;99214.63;106699;1302;22227;-68
2022/10/23 10:56:47;;;;;;;22.50;13.50;;;;;;;11.21;100.00;99218.83;102200;1296;138256;-68
2022/10/23 10:59:30;;;;;;;21.60;13.70;;;;;;;11.18;100.00;99216.14;102254;1295;25353;-68
2022/10/23 11:02:26;;;;;;;22.70;14.00;;;;;;;11.19;100.00;99219.41;106337;1310;139994;-68
2022/10/23 11:05:24;;;;;;;23.90;14.30;;;;;;;11.17;100.00;99220.77;106594;1305;22235;-68
2022/10/23 11:07:54;;;;;;;21.80;14.20;;;;;;;11.15;100.00;99221.74;106638;1294;139363;-68
2022/10/23 11:10:21;;;;;;;20.80;14.20;;;;;;;11.15;100.00;99218.30;106719;1302;22118;-68
2022/10/23 11:12:48;;;;;;;21.00;13.00;;;;;;;11.15;100.00;99219.44;106668;1303;22915;-68
2022/10/23 11:15:15;;;;;;;;;;;;;;;11.15;100.00;99218.03;106529;1303;138628;-68
2022/10/23 11:17:47;;;;;;;16.10;12.30;;;;;;;11.16;100.00;99214.27;106794;1277;23009;-67
2022/10/23 11:20:52;;;;;;;12.30;10.50;;;;;;;11.17;100.00;99212.64;106574;1301;139864;-67
2022/10/23 11:23:33;;;;;;;16.20;11.20;;;;;;;11.18;100.00;99213.46;106767;1302;22145;-68
2022/10/23 11:26:10;;;;;;;12.90;10.10;;;;;;;11.21;100.00;99217.56;106652;1291;140177;-67
2022/10/23 11:29:29;;;;;;;16.80;11.40;;;;;;;11.24;100.00;99216.80;106676;1303;22121;-68
2022/10/23 11:32:33;;;;;;;13.50;11.10;;;;;;;11.29;100.00;99217.41;106588;1302;139197;-68
2022/10/23 11:35:06;;;;;;;11.90;9.10;;;;;;;11.33;100.00;99220.70;106715;1285;22219;-68
2022/10/23 11:37:33;;;;;;;12.60;9.50;;;;;;;11.37;100.00;99218.14;106628;1288;138030;-67
2022/10/23 11:40:05;;;;;;;;;;;;;;;11.39;100.00;99222.34;105002;1288;24029;-67
2022/10/23 11:42:53;;;;;;;13.70;10.50;;;;;;;11.43;100.00;99219.77;102343;1301;22477;-67
2022/10/23 11:45:36;;;;;;;11.70;9.40;;;;;;;11.47;100.00;99220.83;106660;1281;138207;-68
2022/10/23 11:48:04;;;;;;;40.00;27.70;;;;;;;11.51;100.00;99222.70;106772;1295;22102;-67
2022/10/23 11:50:43;;;;;;;17.20;12.50;;;;;;;11.53;100.00;99223.30;106662;1295;138586;-64
2022/10/23 11:53:32;;;;;;;12.70;9.80;;;;;;;11.57;100.00;99228.90;106829;1295;22127;-64